Time;durP1;ratioP1;P1;durP2;ratioP2;P2;SDS_P1;SDS_P2;PMS_P1;PMS_P2;Temp;Humidity;BMP_temperature;BMP_pressure;BME280_temperature;BME280_humidity;BME280_pressure;Samples;Min_cycle;Max_cycle;Signal;HPM_P1;HPM_P2
2022/05/24 00:00:31;;;;;;;3.47;3.17;;;;;;;16.26;100.00;98857.00;5064413;28;20698;-59
2022/05/24 00:02:57;;;;;;;3.50;3.20;;;;;;;16.29;100.00;98865.28;5063593;28;20545;-60
2022/05/24 00:05:24;;;;;;;4.63;3.60;;;;;;;16.27;100.00;98866.41;5052361;28;20260;-59
2022/05/24 00:07:49;;;;;;;3.60;3.00;;;;;;;16.26;100.00;98864.78;5049497;28;20244;-59
2022/05/24 00:10:19;;;;;;;4.40;3.13;;;;;;;16.01;100.00;98862.00;5026890;28;20523;-62
2022/05/24 00:12:45;;;;;;;3.60;2.90;;;;;;;16.06;100.00;98864.97;5060711;28;20170;-60
2022/05/24 00:15:22;;;;;;;3.63;2.87;;;;;;;16.01;100.00;98866.38;5052039;28;20614;-61
2022/05/24 00:18:10;;;;;;;3.20;2.90;;;;;;;15.99;100.00;98871.72;5051491;28;20229;-60
2022/05/24 00:20:40;;;;;;;4.07;2.63;;;;;;;16.16;100.00;98875.25;5038816;28;20231;-60
2022/05/24 00:23:06;;;;;;;4.83;3.20;;;;;;;16.15;100.00;98863.25;5067558;28;20184;-59
2022/05/24 00:25:37;;;;;;;5.80;2.90;;;;;;;16.04;100.00;98860.88;5051389;28;20589;-60
2022/05/24 00:28:05;;;;;;;3.53;2.80;;;;;;;15.98;100.00;98857.91;5047666;28;20181;-59
2022/05/24 00:30:30;;;;;;;3.10;2.70;;;;;;;15.96;100.00;98864.22;5025733;28;20229;-61
2022/05/24 00:32:56;;;;;;;3.33;3.03;;;;;;;16.09;100.00;98869.84;5043669;28;20181;-59
2022/05/24 00:35:21;;;;;;;4.57;2.40;;;;;;;16.04;100.00;98864.31;5031601;28;20513;-60
2022/05/24 00:37:48;;;;;;;3.00;2.73;;;;;;;16.19;100.00;98859.41;5031224;28;20241;-60
2022/05/24 00:40:30;;;;;;;4.77;3.30;;;;;;;16.05;100.00;98855.56;5039865;28;20189;-60
2022/05/24 00:42:56;;;;;;;2.73;2.53;;;;;;;16.07;100.00;98858.00;5059810;28;20276;-59
2022/05/24 00:45:31;;;;;;;2.87;2.67;;;;;;;15.94;100.00;98846.22;5031771;28;20337;-60
2022/05/24 00:48:03;;;;;;;3.00;2.23;;;;;;;15.93;100.00;98849.78;5057221;28;20188;-59
2022/05/24 00:50:34;;;;;;;4.13;2.83;;;;;;;15.92;100.00;98855.91;5044683;28;20308;-59
2022/05/24 00:53:04;;;;;;;2.77;2.57;;;;;;;15.86;100.00;98859.09;5066836;28;20196;-58
2022/05/24 00:55:38;;;;;;;3.80;2.47;;;;;;;15.94;100.00;98864.38;5047782;28;20185;-59
2022/05/24 00:58:12;;;;;;;2.73;2.53;;;;;;;15.86;100.00;98868.69;5049426;28;20209;-58
2022/05/24 01:00:38;;;;;;;3.40;2.40;;;;;;;15.95;100.00;98867.78;5039763;28;20228;-60
2022/05/24 01:03:04;;;;;;;2.87;2.67;;;;;;;15.88;100.00;98864.16;5065475;28;20297;-59
2022/05/24 01:05:31;;;;;;;2.53;2.33;;;;;;;15.78;100.00;98857.22;5046410;28;20177;-59
2022/05/24 01:07:56;;;;;;;4.67;2.70;;;;;;;15.90;100.00;98857.88;5030616;28;20622;-61
2022/05/24 01:10:29;;;;;;;3.93;2.83;;;;;;;15.85;100.00;98854.06;5026478;28;20229;-60
2022/05/24 01:12:57;;;;;;;2.80;2.60;;;;;;;15.89;100.00;98856.22;5054448;28;20185;-59
2022/05/24 01:15:24;;;;;;;3.20;2.90;;;;;;;15.77;100.00;98847.81;5051374;28;20196;-59
2022/05/24 01:17:52;;;;;;;2.97;2.70;;;;;;;15.75;100.00;98851.53;5048883;28;20252;-59
2022/05/24 01:20:19;;;;;;;3.40;3.10;;;;;;;15.74;100.00;98860.25;5041435;28;20767;-59
2022/05/24 01:22:59;;;;;;;3.77;2.97;;;;;;;15.79;100.00;98858.88;5048017;28;20186;-59
2022/05/24 01:25:27;;;;;;;2.60;2.40;;;;;;;15.68;100.00;98855.66;5040109;28;20180;-59
2022/05/24 01:27:52;;;;;;;4.40;2.67;;;;;;;15.57;100.00;98867.88;5050908;28;20192;-59
2022/05/24 01:30:18;;;;;;;4.70;3.60;;;;;;;15.52;100.00;98867.50;5043340;28;20639;-59
2022/05/24 01:38:15;;;;;;;3.50;3.13;;;;;;;15.53;100.00;98863.97;5050620;28;20504;-62
2022/05/24 01:40:43;;;;;;;3.77;3.40;;;;;;;15.46;100.00;98858.53;5048109;28;20290;-58
2022/05/24 01:43:09;;;;;;;3.77;3.20;;;;;;;15.47;100.00;98856.75;5056947;28;20630;-58
2022/05/24 01:45:42;;;;;;;6.83;4.17;;;;;;;15.46;100.00;98860.31;5037072;28;20210;-59
2022/05/24 01:48:14;;;;;;;4.93;3.30;;;;;;;15.43;100.00;98855.41;5041479;28;20199;-59
2022/05/24 01:50:42;;;;;;;4.07;3.43;;;;;;;15.43;100.00;98843.28;5039059;28;20236;-59
2022/05/24 01:53:16;;;;;;;3.50;3.20;;;;;;;15.45;100.00;98851.72;5036702;28;20286;-60
2022/05/24 01:55:51;;;;;;;5.37;3.80;;;;;;;15.39;100.00;98839.34;5066191;28;20181;-58
2022/05/24 01:58:20;;;;;;;4.63;3.87;;;;;;;15.41;100.00;98840.00;5050308;28;20268;-59
2022/05/24 02:00:55;;;;;;;4.23;3.57;;;;;;;15.32;100.00;98840.91;5038014;28;20359;-58
2022/05/24 02:03:21;;;;;;;4.03;3.73;;;;;;;15.13;100.00;98837.44;5036896;28;20177;-60
2022/05/24 02:05:46;;;;;;;4.27;3.87;;;;;;;15.06;100.00;98828.63;5046044;28;20189;-60
2022/05/24 02:08:12;;;;;;;4.60;4.10;;;;;;;15.11;100.00;98823.03;5047732;28;20194;-59
2022/05/24 02:10:48;;;;;;;4.17;3.63;;;;;;;14.91;100.00;98817.09;5041566;28;20605;-59
2022/05/24 02:13:21;;;;;;;4.70;4.23;;;;;;;14.63;100.00;98817.03;5069673;28;20172;-59
2022/05/24 02:15:50;;;;;;;4.40;4.00;;;;;;;14.33;100.00;98811.94;5046594;28;20291;-60
2022/05/24 02:18:17;;;;;;;4.87;4.47;;;;;;;14.25;100.00;98811.84;5032011;28;20233;-59
2022/05/24 02:20:44;;;;;;;4.37;3.97;;;;;;;14.38;100.00;98821.06;5044878;28;20613;-60
2022/05/24 02:23:12;;;;;;;5.77;4.63;;;;;;;14.36;100.00;98816.84;5034410;28;20277;-59
2022/05/24 02:25:49;;;;;;;6.47;4.53;;;;;;;14.28;100.00;98829.66;5065541;28;20186;-62
2022/05/24 02:28:16;;;;;;;5.77;5.23;;;;;;;14.42;100.00;98819.81;5049317;28;20338;-60
2022/05/24 02:30:49;;;;;;;5.83;4.20;;;;;;;14.47;100.00;98815.84;5031400;28;20283;-60
2022/05/24 02:33:15;;;;;;;7.37;4.93;;;;;;;14.27;100.00;98817.66;5042991;28;20175;-60
2022/05/24 02:35:40;;;;;;;5.87;5.23;;;;;;;14.28;100.00;98813.31;5033893;28;20231;-60
2022/05/24 02:38:06;;;;;;;5.73;5.23;;;;;;;14.33;100.00;98816.31;5039717;28;20216;-60
2022/05/24 02:43:16;;;;;;;6.20;5.70;;;;;;;14.25;100.00;98818.75;5023101;28;20198;-60
2022/05/24 02:45:41;;;;;;;5.60;5.10;;;;;;;14.32;100.00;98820.66;5014746;28;20646;-60
2022/05/24 02:48:08;;;;;;;5.93;5.43;;;;;;;14.34;100.00;98818.75;5033365;28;20257;-62
2022/05/24 02:50:33;;;;;;;6.10;5.33;;;;;;;14.40;100.00;98817.38;5015422;28;20727;-61
2022/05/24 02:52:58;;;;;;;8.90;6.10;;;;;;;14.24;100.00;98809.38;5020133;28;20186;-60
2022/05/24 02:55:24;;;;;;;6.37;5.73;;;;;;;14.18;100.00;98806.38;5031909;28;20189;-59
2022/05/24 02:57:49;;;;;;;8.10;5.23;;;;;;;14.27;100.00;98811.69;5014031;28;20252;-59
2022/05/24 03:00:18;;;;;;;5.37;4.97;;;;;;;14.38;100.00;98813.31;4995090;28;20186;-60
2022/05/24 03:02:44;;;;;;;6.60;5.83;;;;;;;14.45;100.00;98822.13;5032503;28;20645;-59
2022/05/24 03:05:12;;;;;;;5.87;5.33;;;;;;;14.50;100.00;98815.59;5033626;28;20227;-58
2022/05/24 03:10:21;;;;;;;5.47;5.00;;;;;;;14.41;100.00;98813.00;5046004;28;20283;-59
2022/05/24 03:15:31;;;;;;;7.37;5.43;;;;;;;14.45;100.00;98815.19;5037129;28;20230;-59
2022/05/24 03:17:57;;;;;;;8.93;6.10;;;;;;;14.52;100.00;98812.84;5051023;28;20229;-59
2022/05/24 03:20:22;;;;;;;6.60;5.83;;;;;;;14.33;100.00;98805.97;5045772;28;20657;-60
2022/05/24 03:22:47;;;;;;;6.30;5.60;;;;;;;14.15;100.00;98803.25;5058301;28;20216;-60
2022/05/24 03:25:13;;;;;;;7.50;6.70;;;;;;;14.04;100.00;98792.13;5048567;28;20181;-60
2022/05/24 03:27:39;;;;;;;7.03;6.00;;;;;;;14.08;100.00;98791.81;5052530;28;20699;-61
2022/05/24 03:30:05;;;;;;;7.57;5.90;;;;;;;13.98;100.00;98787.50;5040329;28;20235;-61
2022/05/24 03:32:30;;;;;;;7.50;6.80;;;;;;;13.95;100.00;98792.94;5051014;28;20225;-60
2022/05/24 03:34:55;;;;;;;7.33;6.63;;;;;;;13.92;100.00;98802.72;5053253;28;20171;-59
2022/05/24 03:37:21;;;;;;;7.10;6.40;;;;;;;13.89;100.00;98801.22;5052558;28;20193;-59
2022/05/24 03:39:46;;;;;;;8.63;7.33;;;;;;;13.96;100.00;98801.53;5068012;28;20216;-60
2022/05/24 03:42:13;;;;;;;7.63;6.93;;;;;;;14.07;100.00;98797.97;5060201;28;20239;-60
2022/05/24 03:44:38;;;;;;;7.87;7.07;;;;;;;14.17;100.00;98803.94;5052805;28;20169;-60
2022/05/24 03:47:04;;;;;;;8.03;7.33;;;;;;;14.23;100.00;98799.97;5051028;28;20521;-60
2022/05/24 03:49:29;;;;;;;9.00;7.93;;;;;;;14.34;100.00;98803.22;5045133;28;20178;-60
2022/05/24 03:51:55;;;;;;;8.77;7.97;;;;;;;14.22;100.00;98806.94;5072716;28;20282;-60
2022/05/24 03:54:20;;;;;;;10.27;9.17;;;;;;;14.30;100.00;98809.63;5054539;28;20169;-59
2022/05/24 03:59:30;;;;;;;10.63;9.23;;;;;;;14.35;100.00;98812.63;5052605;28;20177;-60
2022/05/24 04:01:56;;;;;;;9.93;8.60;;;;;;;14.52;100.00;98807.66;5043908;28;20247;-60
2022/05/24 04:04:22;;;;;;;9.67;8.87;;;;;;;14.63;100.00;98815.25;5053343;28;20580;-59
2022/05/24 04:06:47;;;;;;;9.90;8.10;;;;;;;14.75;100.00;98800.41;5043348;28;20186;-61
2022/05/24 04:09:12;;;;;;;9.37;8.57;;;;;;;14.81;100.00;98807.59;5032485;28;20287;-60
2022/05/24 04:11:38;;;;;;;9.40;8.50;;;;;;;14.74;100.00;98813.50;5047949;28;20259;-61
2022/05/24 04:14:03;;;;;;;9.63;8.63;;;;;;;14.74;100.00;98805.72;5050117;28;20181;-59
2022/05/24 04:16:29;;;;;;;8.90;8.10;;;;;;;14.80;100.00;98807.75;5051778;28;20201;-60
2022/05/24 04:18:55;;;;;;;9.70;8.70;;;;;;;14.80;100.00;98805.16;5050688;28;20221;-59
2022/05/24 04:21:20;;;;;;;9.37;7.63;;;;;;;14.76;100.00;98801.22;5052050;28;20228;-60
2022/05/24 04:23:45;;;;;;;8.77;7.97;;;;;;;14.74;100.00;98811.72;5054010;28;20194;-60
2022/05/24 04:26:10;;;;;;;11.10;8.27;;;;;;;14.77;100.00;98819.22;5031674;28;20178;-59
2022/05/24 04:28:36;;;;;;;8.97;8.17;;;;;;;14.88;100.00;98814.81;5031916;28;20171;-61
2022/05/24 04:31:01;;;;;;;7.67;6.97;;;;;;;15.05;100.00;98818.41;5036979;28;20231;-60
2022/05/24 04:33:27;;;;;;;8.43;7.57;;;;;;;15.06;100.00;98822.59;5047823;28;20625;-60
2022/05/24 04:35:52;;;;;;;8.97;7.67;;;;;;;14.84;100.00;98817.66;5031978;28;20217;-62
2022/05/24 04:38:17;;;;;;;8.23;7.37;;;;;;;14.92;100.00;98818.72;5031401;28;20205;-61
2022/05/24 04:43:27;;;;;;;7.63;6.93;;;;;;;14.80;100.00;98818.91;5047751;28;20189;-62
2022/05/24 04:45:53;;;;;;;7.63;6.23;;;;;;;14.86;100.00;98822.72;5047988;28;20177;-60
2022/05/24 04:48:19;;;;;;;7.70;6.50;;;;;;;15.01;100.00;98823.88;5066486;28;20598;-60
2022/05/24 04:50:45;;;;;;;7.00;6.40;;;;;;;15.15;100.00;98829.53;5039838;28;20676;-59
2022/05/24 04:53:11;;;;;;;6.53;5.87;;;;;;;15.23;100.00;98826.22;5050227;28;20176;-60
2022/05/24 04:55:36;;;;;;;9.13;5.50;;;;;;;15.37;100.00;98830.91;5051117;28;20165;-59
2022/05/24 04:58:02;;;;;;;6.07;5.47;;;;;;;15.49;100.00;98827.16;5038151;28;20613;-59
2022/05/24 05:00:27;;;;;;;5.87;5.27;;;;;;;15.37;100.00;98830.06;5027996;28;20263;-63
2022/05/24 05:02:52;;;;;;;8.20;6.00;;;;;;;15.43;100.00;98837.25;5064891;28;20296;-60
2022/05/24 05:05:19;;;;;;;6.10;5.50;;;;;;;15.42;100.00;98846.81;5051586;28;20212;-60
2022/05/24 05:07:44;;;;;;;6.27;5.67;;;;;;;15.45;100.00;98849.13;5050667;28;20197;-59
2022/05/24 05:10:12;;;;;;;5.50;4.87;;;;;;;15.45;100.00;98850.91;5041811;28;20206;-60
2022/05/24 05:12:38;;;;;;;4.93;4.50;;;;;;;15.56;100.00;98855.88;5065268;28;20197;-60
2022/05/24 05:15:05;;;;;;;6.60;4.37;;;;;;;15.41;100.00;98850.38;5038485;28;20178;-61
2022/05/24 05:17:30;;;;;;;5.03;4.10;;;;;;;15.59;100.00;98862.53;5030522;28;20660;-59
2022/05/24 05:19:56;;;;;;;5.07;4.00;;;;;;;15.70;100.00;98854.53;5043533;28;20201;-59
2022/05/24 05:22:22;;;;;;;5.87;3.47;;;;;;;15.61;100.00;98866.63;5040698;28;20303;-59
2022/05/24 05:24:48;;;;;;;3.90;3.43;;;;;;;15.56;100.00;98868.03;5066397;28;20184;-60
2022/05/24 05:27:13;;;;;;;3.40;3.20;;;;;;;15.70;100.00;98870.09;5051080;28;20262;-60
2022/05/24 05:32:30;;;;;;;2.70;2.50;;;;;;;15.77;100.00;98881.53;5043274;28;20629;-65
2022/05/24 05:34:56;;;;;;;2.63;2.43;;;;;;;15.72;100.00;98882.94;5039455;28;20182;-64
2022/05/24 05:37:23;;;;;;;2.97;1.63;;;;;;;15.70;100.00;98893.44;5036917;28;20197;-64
2022/05/24 05:39:48;;;;;;;9.07;1.77;;;;;;;15.97;100.00;98902.97;5031298;28;20186;-63
2022/05/24 05:42:14;;;;;;;2.33;1.50;;;;;;;15.90;100.00;98904.53;5027648;28;20731;-65
2022/05/24 05:44:40;;;;;;;3.57;1.50;;;;;;;15.90;100.00;98906.31;5041144;28;20656;-64
2022/05/24 05:47:06;;;;;;;1.77;1.67;;;;;;;15.87;100.00;98927.34;5035917;28;20652;-64
2022/05/24 05:49:31;;;;;;;3.20;2.17;;;;;;;15.50;100.00;98934.22;5036946;28;20194;-63
2022/05/24 05:51:57;;;;;;;1.60;1.50;;;;;;;14.89;100.00;98930.34;5055145;28;20227;-64
2022/05/24 05:54:23;;;;;;;2.97;2.43;;;;;;;14.76;100.00;98939.25;5035571;28;20190;-65
2022/05/24 05:56:49;;;;;;;2.57;2.30;;;;;;;14.90;100.00;98940.56;5033529;28;20289;-64
2022/05/24 05:59:15;;;;;;;2.90;2.60;;;;;;;14.94;100.00;98941.09;5033761;28;20179;-64
2022/05/24 06:01:42;;;;;;;2.90;2.00;;;;;;;14.91;100.00;98942.19;5043203;28;20665;-64
2022/05/24 06:04:08;;;;;;;2.43;1.77;;;;;;;14.93;100.00;98939.47;5041656;28;20182;-64
2022/05/24 06:06:41;;;;;;;1.67;1.57;;;;;;;14.89;100.00;98920.00;5033101;28;20178;-64
2022/05/24 06:09:06;;;;;;;1.50;1.40;;;;;;;15.09;100.00;98924.13;5041638;28;20287;-64
2022/05/24 06:11:32;;;;;;;2.20;1.30;;;;;;;15.45;100.00;98926.84;5067827;28;20231;-63
2022/05/24 06:13:57;;;;;;;2.00;1.60;;;;;;;15.53;100.00;98913.19;5062441;28;20183;-64
2022/05/24 06:16:22;;;;;;;1.60;1.40;;;;;;;15.62;100.00;98911.50;5039851;28;20202;-64
2022/05/24 06:18:48;;;;;;;0.97;0.90;;;;;;;15.82;100.00;98922.59;5048413;28;20243;-63
2022/05/24 06:21:13;;;;;;;1.17;0.87;;;;;;;16.32;100.00;98926.47;5044799;28;20209;-64
2022/05/24 06:23:39;;;;;;;1.17;1.03;;;;;;;16.35;100.00;98925.34;5053552;28;20748;-64
2022/05/24 06:26:04;;;;;;;1.00;1.00;;;;;;;16.31;100.00;98940.41;5033896;28;20659;-64
2022/05/24 06:28:30;;;;;;;2.20;1.00;;;;;;;16.49;100.00;98932.59;5033796;28;20190;-64
2022/05/24 06:30:55;;;;;;;1.00;1.00;;;;;;;16.27;100.00;98958.06;5037285;28;20216;-64
2022/05/24 06:33:21;;;;;;;1.37;1.27;;;;;;;16.45;100.00;98962.44;5053585;28;20236;-64
2022/05/24 06:35:46;;;;;;;2.93;1.20;;;;;;;16.71;100.00;98969.44;5032816;28;20178;-64
2022/05/24 06:38:12;;;;;;;0.70;0.70;;;;;;;16.38;100.00;98987.34;5035935;28;20592;-64
2022/05/24 06:40:38;;;;;;;1.40;0.90;;;;;;;16.27;100.00;98994.38;5034960;28;20228;-65
2022/05/24 06:43:04;;;;;;;1.03;1.00;;;;;;;15.95;100.00;98985.31;5055717;28;20647;-64
2022/05/24 06:45:31;;;;;;;2.67;0.90;;;;;;;15.73;100.00;99004.63;5037774;28;20555;-64
2022/05/24 06:47:56;;;;;;;1.23;1.13;;;;;;;15.87;100.00;99008.53;5034265;28;20186;-64
2022/05/24 06:50:21;;;;;;;1.10;1.00;;;;;;;15.87;100.00;99021.50;5025934;28;20272;-68
2022/05/24 06:52:47;;;;;;;1.00;0.90;;;;;;;16.16;100.00;99030.09;5065156;28;20192;-67
2022/05/24 06:55:13;;;;;;;3.03;0.77;;;;;;;16.07;100.00;99039.56;5038150;28;20182;-67
2022/05/24 06:57:39;;;;;;;1.50;0.53;;;;;;;15.48;100.00;99044.97;5036227;28;20599;-69
2022/05/24 07:02:59;;;;;;;0.80;0.60;;;;;;;15.82;100.00;99052.25;5046360;28;20200;-69
2022/05/24 07:05:24;;;;;;;0.90;0.60;;;;;;;15.99;100.00;99042.91;5049761;28;20182;-69
2022/05/24 07:07:49;;;;;;;0.40;0.40;;;;;;;16.17;100.00;99049.88;5033565;28;20192;-66
2022/05/24 07:10:18;;;;;;;1.40;0.57;;;;;;;16.06;98.18;99045.72;5042673;28;20598;-68
2022/05/24 07:12:45;;;;;;;0.67;0.67;;;;;;;16.14;94.92;99045.81;5071915;28;20192;-69
2022/05/24 07:15:11;;;;;;;0.70;0.50;;;;;;;16.52;92.79;99037.91;5045414;28;20232;-67
2022/05/24 07:17:37;;;;;;;0.90;0.60;;;;;;;16.28;97.06;99044.50;5051652;28;20226;-67
2022/05/24 07:20:03;;;;;;;1.20;0.60;;;;;;;16.57;96.32;99027.88;5045320;28;20697;-66
2022/05/24 07:22:28;;;;;;;0.50;0.50;;;;;;;16.83;92.05;99029.72;5057519;28;20218;-67
2022/05/24 07:24:54;;;;;;;1.10;0.70;;;;;;;17.14;89.73;99040.56;5047925;28;20228;-65
2022/05/24 07:27:21;;;;;;;0.33;0.33;;;;;;;17.05;88.64;99046.66;5051342;28;20181;-67
2022/05/24 07:29:47;;;;;;;0.63;0.63;;;;;;;17.06;88.48;99054.28;5032495;28;20289;-64
2022/05/24 07:32:12;;;;;;;4.53;0.50;;;;;;;16.96;88.90;99058.78;5019119;28;20312;-65
2022/05/24 07:34:38;;;;;;;1.90;0.80;;;;;;;17.07;90.89;99063.72;5036724;28;20182;-65
2022/05/24 07:37:05;;;;;;;1.30;0.60;;;;;;;17.73;86.74;99061.50;5034085;28;20680;-68
2022/05/24 07:39:31;;;;;;;1.13;0.50;;;;;;;19.10;74.65;99065.75;5066084;28;20636;-67
2022/05/24 07:47:38;;;;;;;0.43;0.40;;;;;;;20.89;62.91;99094.94;5039773;28;20613;-67
2022/05/24 07:50:05;;;;;;;0.80;0.60;;;;;;;20.77;58.17;99099.75;5027680;28;20277;-69
2022/05/24 07:52:31;;;;;;;1.63;0.57;;;;;;;20.57;62.56;99100.16;5048765;28;20194;-68
2022/05/24 07:54:56;;;;;;;0.40;0.40;;;;;;;20.78;56.13;99111.81;5035351;28;20664;-68
2022/05/24 07:57:22;;;;;;;2.20;0.50;;;;;;;20.77;55.28;99113.59;5053180;28;20208;-68
2022/05/24 07:59:50;;;;;;;0.47;0.40;;;;;;;21.28;54.13;99110.44;5050015;28;20215;-68
2022/05/24 08:02:17;;;;;;;0.40;0.40;;;;;;;21.54;53.12;99106.56;5060772;28;20248;-69
2022/05/24 08:04:43;;;;;;;0.50;0.40;;;;;;;20.43;54.97;99116.59;5046828;28;20185;-68
2022/05/24 08:10:32;;;;;;;0.30;0.20;;;;;;;21.73;51.09;99110.50;5035366;28;20231;-68
2022/05/24 08:12:58;;;;;;;0.73;0.50;;;;;;;22.55;46.91;99113.09;5046800;28;20541;-68
2022/05/24 08:15:24;;;;;;;0.70;0.40;;;;;;;23.33;44.62;99128.97;5042141;28;20193;-70
2022/05/24 08:17:50;;;;;;;0.60;0.37;;;;;;;25.33;42.66;99134.31;5048919;28;20701;-69
2022/05/24 08:20:16;;;;;;;0.45;0.40;;;;;;;26.37;37.58;99142.38;5037547;28;20205;-69
2022/05/24 08:22:42;;;;;;;0.35;0.30;;;;;;;26.76;37.45;99145.84;5050011;28;20216;-68
2022/05/24 08:25:10;;;;;;;0.32;0.32;;;;;;;27.11;36.29;99153.28;5033410;28;20236;-67
2022/05/24 08:27:35;;;;;;;0.30;0.30;;;;;;;26.94;35.67;99160.97;5045009;28;20190;-66
2022/05/24 08:30:01;;;;;;;0.20;0.20;;;;;;;27.29;35.97;99160.47;5052846;28;20268;-66
2022/05/24 08:32:26;;;;;;;5.45;0.77;;;;;;;26.73;35.55;99172.59;5075010;28;20687;-67
2022/05/24 08:34:52;;;;;;;0.95;0.17;;;;;;;26.83;36.22;99185.34;5040926;28;20185;-69
2022/05/24 08:37:18;;;;;;;0.52;0.40;;;;;;;25.47;37.44;99179.91;5051896;28;20209;-68
2022/05/24 08:39:44;;;;;;;0.47;0.30;;;;;;;26.69;35.37;99171.41;5063791;28;20182;-70
2022/05/24 08:42:37;;;;;;;1.15;0.40;;;;;;;25.54;36.36;99178.06;5073430;28;20612;-69
2022/05/24 08:48:25;;;;;;;0.38;0.30;;;;;;;26.68;34.45;99186.44;5049997;28;20614;-67
2022/05/24 08:50:58;;;;;;;0.45;0.30;;;;;;;26.32;34.92;99185.22;5053388;28;20259;-67
2022/05/24 08:53:42;;;;;;;0.60;0.30;;;;;;;27.43;32.84;99192.88;5048406;28;20946;-68
2022/05/24 08:56:12;;;;;;;1.60;0.40;;;;;;;26.83;34.46;99188.81;5049313;28;20169;-67
2022/05/24 08:58:42;;;;;;;0.77;0.28;;;;;;;26.67;32.46;99184.81;5066139;28;20543;-68
2022/05/24 09:01:25;;;;;;;0.20;0.20;;;;;;;25.25;35.76;99193.22;5055701;28;20231;-66
2022/05/24 09:03:51;;;;;;;0.28;0.28;;;;;;;26.06;35.06;99186.09;5056945;28;20342;-67
2022/05/24 09:06:22;;;;;;;0.40;0.40;;;;;;;27.14;34.72;99175.81;5039211;28;20772;-67
2022/05/24 09:08:57;;;;;;;0.20;0.20;;;;;;;26.94;34.55;99183.88;5051902;28;20188;-68
2022/05/24 09:11:47;;;;;;;0.50;0.50;;;;;;;26.45;34.86;99188.81;5063742;28;20224;-68
2022/05/24 09:14:43;;;;;;;0.40;0.40;;;;;;;24.76;36.92;99192.56;5055478;28;20185;-68
2022/05/24 09:17:39;;;;;;;1.00;0.40;;;;;;;25.27;36.13;99183.31;5036543;28;20230;-67
2022/05/24 09:20:34;;;;;;;2.20;0.50;;;;;;;25.29;37.57;99197.06;5034063;28;20279;-69
2022/05/24 09:23:05;;;;;;;2.47;0.43;;;;;;;25.95;35.90;99187.53;5067783;28;20235;-68
2022/05/24 09:25:31;;;;;;;0.52;0.47;;;;;;;28.79;32.53;99196.47;5050807;28;20181;-67
2022/05/24 09:27:56;;;;;;;0.88;0.40;;;;;;;27.48;32.88;99210.72;5052268;28;20695;-68
2022/05/24 09:30:45;;;;;;;2.50;0.32;;;;;;;27.47;32.48;99201.19;5046573;28;20229;-68
2022/05/24 09:33:19;;;;;;;0.75;0.30;;;;;;;26.21;34.89;99201.66;5058725;28;20178;-70
2022/05/24 09:35:44;;;;;;;0.93;0.40;;;;;;;27.52;33.17;99209.25;5046466;28;20178;-68
2022/05/24 09:38:16;;;;;;;0.40;0.40;;;;;;;28.34;32.55;99216.16;5066732;28;20203;-68
2022/05/24 09:41:04;;;;;;;1.77;0.30;;;;;;;29.47;29.83;99218.25;5051573;28;20324;-68
2022/05/24 09:43:35;;;;;;;1.70;0.40;;;;;;;28.70;30.58;99225.09;5067699;28;20542;-69
2022/05/24 09:46:09;;;;;;;0.45;0.30;;;;;;;27.75;31.51;99228.94;5046204;28;20186;-69
2022/05/24 09:48:38;;;;;;;0.35;0.32;;;;;;;26.20;34.74;99232.47;5043326;28;20344;-68
2022/05/24 09:51:10;;;;;;;1.35;0.32;;;;;;;25.04;37.01;99229.22;5043192;28;20317;-67
2022/05/24 09:53:48;;;;;;;0.40;0.40;;;;;;;25.98;35.56;99228.47;5044538;28;20243;-66
2022/05/24 09:56:24;;;;;;;1.95;0.70;;;;;;;27.31;32.60;99227.03;5048739;28;20185;-70
2022/05/24 09:59:00;;;;;;;2.58;0.50;;;;;;;28.74;30.24;99223.63;5052174;28;20204;-67
2022/05/24 10:01:31;;;;;;;1.23;0.60;;;;;;;29.56;29.83;99222.19;5055361;28;20583;-73
2022/05/24 10:04:18;;;;;;;1.65;0.55;;;;;;;29.98;28.66;99234.53;5054328;28;20539;-69
2022/05/24 10:06:59;;;;;;;1.30;0.50;;;;;;;29.55;29.26;99230.38;5049877;28;20196;-69
2022/05/24 10:09:49;;;;;;;0.47;0.43;;;;;;;31.04;26.42;99241.34;5051115;28;20173;-71
2022/05/24 10:12:40;;;;;;;0.95;0.50;;;;;;;32.12;26.03;99238.72;5073997;28;20235;-65
2022/05/24 10:15:12;;;;;;;1.83;0.82;;;;;;;32.86;25.17;99239.28;5035190;28;20708;-67
2022/05/24 10:17:49;;;;;;;3.00;0.40;;;;;;;33.27;23.66;99235.09;5048809;28;20233;-68
2022/05/24 10:20:51;;;;;;;0.60;0.50;;;;;;;32.88;25.13;99239.84;5058502;28;20185;-66
2022/05/24 10:23:47;;;;;;;2.05;0.50;;;;;;;31.38;24.46;99240.56;5061335;28;20279;-66
2022/05/24 10:26:39;;;;;;;2.05;0.65;;;;;;;31.66;25.44;99255.66;5031075;28;20182;-66
2022/05/24 10:29:33;;;;;;;0.60;0.45;;;;;;;31.24;26.17;99253.38;5033943;28;20301;-66
2022/05/24 10:32:05;;;;;;;1.88;0.55;;;;;;;28.94;29.65;99260.41;5058720;28;20232;-68
2022/05/24 10:40:41;;;;;;;0.60;0.50;;;;;;;24.40;33.79;99264.56;4992731;28;20642;-66
2022/05/24 10:43:18;;;;;;;0.70;0.47;;;;;;;22.69;35.91;99272.13;5045185;28;20201;-66
2022/05/24 10:45:51;;;;;;;1.38;0.50;;;;;;;21.88;37.85;99272.81;5041605;28;20208;-66
2022/05/24 10:48:33;;;;;;;0.90;0.47;;;;;;;21.38;39.81;99269.72;5080331;28;20181;-67
2022/05/24 10:51:07;;;;;;;1.23;0.60;;;;;;;20.76;41.27;99276.63;5049124;28;20250;-66
2022/05/24 10:53:44;;;;;;;0.90;0.40;;;;;;;20.86;40.36;99281.63;5046363;28;20178;-68
2022/05/24 10:56:21;;;;;;;0.93;0.57;;;;;;;21.84;41.20;99281.19;5065958;28;20260;-69
2022/05/24 10:58:48;;;;;;;0.50;0.47;;;;;;;22.47;38.98;99280.94;5084721;28;20268;-68
2022/05/24 11:01:32;;;;;;;0.67;0.67;;;;;;;21.80;40.36;99295.63;5043517;28;20227;-67
2022/05/24 11:04:04;;;;;;;0.53;0.53;;;;;;;21.52;41.08;99286.50;5039835;28;20173;-66
2022/05/24 11:06:39;;;;;;;1.93;0.77;;;;;;;21.50;41.04;99288.47;5055335;28;20182;-66
2022/05/24 11:09:18;;;;;;;1.37;0.63;;;;;;;21.14;42.69;99291.63;5069601;28;20174;-66
2022/05/24 11:12:12;;;;;;;2.40;0.90;;;;;;;20.98;42.78;99283.91;5055861;28;20272;-67
2022/05/24 11:14:47;;;;;;;0.90;0.53;;;;;;;21.41;41.76;99286.91;5045616;28;20200;-66
2022/05/24 11:17:16;;;;;;;0.50;0.40;;;;;;;21.90;40.87;99290.97;5056772;28;20248;-67
2022/05/24 11:19:49;;;;;;;0.87;0.53;;;;;;;22.00;41.53;99291.50;5042434;28;20225;-67
2022/05/24 11:22:47;;;;;;;0.40;0.40;;;;;;;21.55;40.11;99291.38;5042389;28;20664;-68
2022/05/24 11:25:25;;;;;;;0.87;0.50;;;;;;;21.29;41.23;99300.34;5048821;28;20263;-69
2022/05/24 11:28:06;;;;;;;0.60;0.50;;;;;;;21.38;42.37;99290.66;5053478;28;20268;-70
2022/05/24 11:30:38;;;;;;;2.60;0.60;;;;;;;21.08;41.71;99285.28;5045973;28;20249;-69
2022/05/24 11:33:06;;;;;;;1.17;0.50;;;;;;;21.02;41.40;99288.59;5031064;28;20486;-69
2022/05/24 11:35:38;;;;;;;0.30;0.30;;;;;;;20.71;40.83;99276.31;5031160;28;20294;-69
2022/05/24 11:38:43;;;;;;;0.50;0.30;;;;;;;20.61;41.54;99267.84;5030982;28;20205;-69
2022/05/24 11:41:09;;;;;;;1.70;0.50;;;;;;;20.73;43.44;99274.34;4941891;28;20243;-70
2022/05/24 11:43:39;;;;;;;0.67;0.40;;;;;;;20.96;40.77;99281.44;4963785;28;20189;-70
2022/05/24 11:46:08;;;;;;;0.80;0.70;;;;;;;20.99;39.98;99270.63;4954589;28;20184;-70
2022/05/24 11:48:41;;;;;;;0.47;0.40;;;;;;;20.78;40.52;99273.84;4971102;28;20220;-69
2022/05/24 11:51:28;;;;;;;1.00;0.43;;;;;;;20.71;40.81;99276.31;4961694;28;20239;-70
2022/05/24 11:53:53;;;;;;;0.53;0.53;;;;;;;20.93;40.88;99272.13;4971301;28;20196;-70
2022/05/24 11:56:19;;;;;;;0.57;0.50;;;;;;;21.27;41.27;99276.19;4970666;28;20335;-70
2022/05/24 11:58:48;;;;;;;2.73;0.60;;;;;;;21.23;40.00;99285.34;4970342;28;20221;-70
2022/05/24 12:01:17;;;;;;;3.30;0.50;;;;;;;21.16;41.32;99284.44;4947412;28;20232;-71
2022/05/24 12:10:10;;;;;;;2.57;0.50;;;;;;;21.18;39.20;99281.66;4942699;29;20270;-69
2022/05/24 12:12:53;;;;;;;1.50;0.60;;;;;;;21.34;37.88;99294.63;4945570;28;20259;-67
2022/05/24 12:15:20;;;;;;;1.30;0.53;;;;;;;21.21;39.50;99295.19;5006812;28;20209;-68
2022/05/24 12:18:08;;;;;;;0.90;0.90;;;;;;;21.16;38.17;99286.22;5052364;28;20233;-68
2022/05/24 12:20:33;;;;;;;0.40;0.40;;;;;;;20.96;38.69;99299.72;5039278;28;20228;-69
2022/05/24 12:23:08;;;;;;;0.60;0.53;;;;;;;21.12;37.83;99302.28;5057902;28;20189;-68
2022/05/24 12:26:01;;;;;;;0.40;0.40;;;;;;;21.15;39.17;99295.06;5050390;28;20260;-69
2022/05/24 12:28:32;;;;;;;0.50;0.50;;;;;;;21.43;40.31;99304.06;5043458;28;20186;-67
2022/05/24 12:30:58;;;;;;;1.10;0.73;;;;;;;21.42;38.64;99302.41;5058188;28;20286;-67